Time;durP1;ratioP1;P1;durP2;ratioP2;P2;SDS_P1;SDS_P2;PMS_P1;PMS_P2;Temp;Humidity;BMP_temperature;BMP_pressure;BME280_temperature;BME280_humidity;BME280_pressure;Samples;Min_cycle;Max_cycle;Signal;HPM_P1;HPM_P2
2023/10/11 00:00:50;;;;;;;11.87;9.77;;;13.80;99.90;;;;;;8259884;28;20215;-71
2023/10/11 00:04:53;;;;;;;12.77;10.00;;;13.90;99.90;;;;;;8266497;28;20188;-69
2023/10/11 00:08:54;;;;;;;16.73;9.23;;;14.00;99.90;;;;;;8262624;28;20183;-71
2023/10/11 00:12:58;;;;;;;15.93;9.73;;;14.00;99.90;;;;;;8252276;28;20226;-67
2023/10/11 00:16:59;;;;;;;15.10;9.13;;;14.10;99.90;;;;;;8263856;28;20199;-66
2023/10/11 00:21:10;;;;;;;12.77;8.60;;;14.20;99.90;;;;;;8265867;28;20178;-65
2023/10/11 00:25:12;;;;;;;16.97;9.73;;;14.20;99.90;;;;;;8255090;28;20702;-64
2023/10/11 00:29:13;;;;;;;9.50;8.07;;;14.20;99.90;;;;;;8253132;28;20488;-64
2023/10/11 00:33:14;;;;;;;14.37;9.03;;;14.30;99.90;;;;;;8253786;28;20207;-65
2023/10/11 00:37:16;;;;;;;12.37;8.80;;;14.40;99.90;;;;;;8252705;28;20215;-65
2023/10/11 00:41:19;;;;;;;12.97;9.03;;;14.40;99.90;;;;;;8269774;28;20182;-64
2023/10/11 00:45:22;;;;;;;10.80;8.50;;;14.50;99.90;;;;;;8272042;28;20328;-63
2023/10/11 00:49:39;;;;;;;12.33;8.90;;;14.50;99.90;;;;;;8252882;28;20187;-65
2023/10/11 00:53:40;;;;;;;10.93;8.50;;;14.50;99.90;;;;;;8271645;28;20242;-64
2023/10/11 00:57:41;;;;;;;12.00;8.53;;;14.60;99.90;;;;;;8270773;28;20613;-65
2023/10/11 01:01:42;;;;;;;13.93;8.70;;;14.70;99.90;;;;;;8254904;28;20225;-62
2023/10/11 01:05:44;;;;;;;11.83;8.87;;;14.80;99.90;;;;;;8272523;28;20172;-66
2023/10/11 01:09:45;;;;;;;9.50;7.43;;;14.90;99.90;;;;;;8270536;28;20191;-64
2023/10/11 01:13:50;;;;;;;10.83;7.50;;;14.90;99.90;;;;;;8257771;28;20183;-64
2023/10/11 01:17:53;;;;;;;13.17;7.40;;;14.90;99.90;;;;;;8254161;28;20219;-65
2023/10/11 01:21:59;;;;;;;13.27;8.10;;;14.90;99.90;;;;;;8241641;28;20230;-71
2023/10/11 01:26:07;;;;;;;12.13;8.10;;;14.90;99.90;;;;;;8276442;28;20214;-67
2023/10/11 01:30:09;;;;;;;14.43;7.90;;;14.90;99.90;;;;;;8266777;28;20197;-72
2023/10/11 01:34:14;;;;;;;11.67;7.60;;;14.90;99.90;;;;;;8260808;28;20282;-73
2023/10/11 01:38:17;;;;;;;12.73;7.87;;;14.90;99.90;;;;;;8263542;28;20219;-73
2023/10/11 01:42:18;;;;;;;11.03;7.30;;;14.90;99.90;;;;;;8281039;28;20194;-71
2023/10/11 01:46:26;;;;;;;12.80;8.20;;;14.80;99.90;;;;;;8265415;28;20179;-71
2023/10/11 01:50:28;;;;;;;7.90;6.37;;;14.80;99.90;;;;;;8280400;28;20259;-71
2023/10/11 01:54:29;;;;;;;11.00;6.57;;;14.80;99.90;;;;;;8280660;28;20322;-69
2023/10/11 01:58:37;;;;;;;13.10;8.03;;;14.70;99.90;;;;;;8264926;28;20210;-69
2023/10/11 02:02:44;;;;;;;6.97;6.23;;;14.70;99.90;;;;;;8282381;28;20179;-71
2023/10/11 02:06:47;;;;;;;10.93;7.07;;;14.60;99.90;;;;;;8268421;28;20444;-70
2023/10/11 02:10:50;;;;;;;13.03;6.63;;;14.50;99.90;;;;;;8266258;28;20278;-70
2023/10/11 02:14:52;;;;;;;11.67;8.00;;;14.50;99.90;;;;;;8263714;28;20259;-69
2023/10/11 02:18:58;;;;;;;10.03;7.40;;;14.50;99.90;;;;;;8264944;28;20215;-70
2023/10/11 02:23:00;;;;;;;9.43;7.30;;;14.40;99.90;;;;;;8280350;28;20183;-69
2023/10/11 02:27:06;;;;;;;12.30;7.93;;;14.40;99.90;;;;;;8268432;28;20207;-70
2023/10/11 02:31:13;;;;;;;10.07;7.77;;;14.40;99.90;;;;;;8264710;28;20198;-70
2023/10/11 02:35:14;;;;;;;11.10;7.87;;;14.30;99.90;;;;;;8280320;28;20195;-70
2023/10/11 02:39:17;;;;;;;11.03;7.80;;;14.30;99.90;;;;;;8261696;28;20253;-67
2023/10/11 02:43:20;;;;;;;9.10;7.03;;;14.30;99.90;;;;;;8251110;28;20197;-62
2023/10/11 02:47:22;;;;;;;10.40;7.17;;;14.30;99.90;;;;;;8269530;28;20406;-63
2023/10/11 02:51:26;;;;;;;10.80;7.27;;;14.30;99.90;;;;;;8270158;28;20188;-63
2023/10/11 02:55:27;;;;;;;10.40;6.90;;;14.30;99.90;;;;;;8270077;28;20246;-63
2023/10/11 02:59:28;;;;;;;12.70;7.77;;;14.30;99.90;;;;;;8266453;28;20445;-64
2023/10/11 03:03:29;;;;;;;13.27;7.43;;;14.30;99.90;;;;;;8271335;28;20422;-65
2023/10/11 03:07:33;;;;;;;11.10;6.63;;;14.30;99.90;;;;;;8268352;28;20195;-62
2023/10/11 03:11:34;;;;;;;7.83;6.70;;;14.40;99.90;;;;;;8267462;28;20188;-64
2023/10/11 03:15:38;;;;;;;11.10;7.50;;;14.40;99.90;;;;;;8270375;28;20178;-63
2023/10/11 03:19:42;;;;;;;9.10;6.83;;;14.40;99.90;;;;;;8270202;28;20234;-62
2023/10/11 03:23:48;;;;;;;11.57;7.33;;;14.50;99.90;;;;;;8267295;28;20266;-64
2023/10/11 03:27:49;;;;;;;10.43;6.77;;;14.50;99.90;;;;;;8267627;28;20191;-63
2023/10/11 03:31:50;;;;;;;10.63;6.70;;;14.60;99.90;;;;;;8250021;28;20183;-65
2023/10/11 03:35:51;;;;;;;8.30;6.30;;;14.60;99.90;;;;;;8266100;28;20219;-63
2023/10/11 03:39:57;;;;;;;8.90;6.83;;;14.60;99.90;;;;;;8266030;28;20215;-65
2023/10/11 03:44:09;;;;;;;9.87;5.83;;;14.50;99.90;;;;;;8268833;28;20321;-65
2023/10/11 03:48:10;;;;;;;11.10;6.73;;;14.50;99.90;;;;;;8268743;28;20187;-63
2023/10/11 03:52:19;;;;;;;8.80;6.63;;;14.50;99.90;;;;;;8253803;28;20198;-63
2023/10/11 03:56:20;;;;;;;11.50;6.97;;;14.50;99.90;;;;;;8249086;28;20207;-62
2023/10/11 04:04:26;;;;;;;10.93;7.10;;;14.40;99.90;;;;;;8283819;28;20183;-69
2023/10/11 04:08:27;;;;;;;8.80;6.57;;;14.30;99.90;;;;;;8270057;28;20198;-67
2023/10/11 04:12:30;;;;;;;8.30;6.37;;;14.30;99.90;;;;;;8260732;28;20184;-62
2023/10/11 04:16:31;;;;;;;11.67;6.43;;;14.30;99.90;;;;;;8271245;28;20372;-62
2023/10/11 04:20:33;;;;;;;9.83;6.93;;;14.20;99.90;;;;;;8254956;28;20288;-64
2023/10/11 04:24:36;;;;;;;11.93;6.33;;;14.20;99.90;;;;;;8274567;28;20205;-65
2023/10/11 04:28:41;;;;;;;9.60;6.10;;;14.10;99.90;;;;;;8255053;28;20206;-63
2023/10/11 04:32:45;;;;;;;9.23;5.70;;;14.10;99.90;;;;;;8259505;28;20210;-65
2023/10/11 04:36:46;;;;;;;7.30;5.83;;;14.00;99.90;;;;;;8273377;28;20207;-63
2023/10/11 04:40:51;;;;;;;6.53;5.60;;;14.00;99.90;;;;;;8270513;28;20191;-64
2023/10/11 04:44:54;;;;;;;7.97;6.17;;;14.00;99.90;;;;;;8272638;28;20211;-64
2023/10/11 04:49:07;;;;;;;8.70;5.97;;;14.00;99.90;;;;;;8255050;28;20314;-64
2023/10/11 04:53:08;;;;;;;9.30;5.73;;;13.90;99.90;;;;;;8256034;28;20413;-64
2023/10/11 04:57:17;;;;;;;7.43;5.13;;;13.90;99.90;;;;;;8257417;28;20212;-63
2023/10/11 05:01:40;;;;;;;9.63;6.07;;;13.90;99.90;;;;;;8271092;28;20211;-66
2023/10/11 05:05:58;;;;;;;12.20;5.77;;;13.90;99.90;;;;;;8270468;28;20186;-64
2023/10/11 05:10:22;;;;;;;9.50;5.20;;;13.90;99.90;;;;;;8268744;28;20191;-64
2023/10/11 05:14:30;;;;;;;6.40;4.50;;;13.90;99.90;;;;;;8268783;28;20217;-63
2023/10/11 05:18:31;;;;;;;8.63;5.17;;;13.90;99.90;;;;;;8270716;28;20247;-64
2023/10/11 05:26:48;;;;;;;10.40;5.80;;;13.90;99.90;;;;;;8289323;28;20192;-71
2023/10/11 05:35:19;;;;;;;8.57;5.30;;;13.90;99.90;;;;;;8288878;28;20273;-70
2023/10/11 05:52:18;;;;;;;9.13;5.20;;;14.20;99.90;;;;;;8266640;28;20193;-68
2023/10/11 05:56:22;;;;;;;8.67;6.10;;;14.40;99.90;;;;;;8266754;28;20746;-66
2023/10/11 06:00:25;;;;;;;9.60;5.23;;;14.50;99.90;;;;;;8266370;28;20330;-67
2023/10/11 06:04:25;;;;;;;11.57;5.60;;;14.70;99.90;;;;;;8251419;28;20180;-67
2023/10/11 06:08:31;;;;;;;9.70;5.27;;;14.80;99.90;;;;;;8269197;28;20195;-68
2023/10/11 06:12:33;;;;;;;7.00;5.07;;;14.90;99.90;;;;;;8252886;28;20396;-65
2023/10/11 06:16:39;;;;;;;9.03;5.10;;;15.00;99.90;;;;;;8267100;28;20214;-67
2023/10/11 06:20:39;;;;;;;8.33;4.97;;;15.20;99.90;;;;;;8267800;28;20182;-68
2023/10/11 06:24:40;;;;;;;8.10;4.20;;;15.30;99.90;;;;;;8267854;28;20488;-67
2023/10/11 06:28:44;;;;;;;9.70;5.17;;;15.50;1.00;;;;;;8269137;28;20179;-67
2023/10/11 06:32:45;;;;;;;9.00;4.90;;;15.70;99.90;;;;;;8269371;28;20190;-66
2023/10/11 06:36:48;;;;;;;13.73;5.23;;;15.90;99.20;;;;;;8268718;28;20305;-68
2023/10/11 06:40:54;;;;;;;7.13;4.43;;;16.10;41.90;;;;;;8250652;28;20194;-66
2023/10/11 06:45:01;;;;;;;7.60;4.20;;;16.30;16.50;;;;;;8267862;28;20272;-65
2023/10/11 06:49:01;;;;;;;8.33;4.53;;;16.50;1.00;;;;;;8264711;28;20188;-65
2023/10/11 06:53:11;;;;;;;11.60;4.70;;;16.60;1.00;;;;;;8271636;28;20191;-70
2023/10/11 06:57:19;;;;;;;7.20;4.63;;;16.80;1.00;;;;;;8276298;28;20502;-73
2023/10/11 07:01:20;;;;;;;7.83;4.63;;;16.90;1.00;;;;;;8278303;28;20321;-72
2023/10/11 07:05:25;;;;;;;9.67;4.40;;;17.10;1.00;;;;;;8258255;28;20183;-72
2023/10/11 07:09:29;;;;;;;8.77;4.80;;;17.20;1.00;;;;;;8276471;28;20192;-68
2023/10/11 07:13:49;;;;;;;10.77;4.30;;;17.30;1.00;;;;;;8269826;28;20183;-68
2023/10/11 07:17:52;;;;;;;8.83;5.00;;;17.50;1.00;;;;;;8258004;28;20257;-71
2023/10/11 07:21:53;;;;;;;7.93;4.00;;;17.70;1.00;;;;;;8260423;28;20217;-71
2023/10/11 07:30:16;;;;;;;8.63;4.77;;;17.80;1.00;;;;;;8278051;28;20219;-71
2023/10/11 07:34:20;;;;;;;13.13;4.90;;;17.80;1.00;;;;;;8282154;28;20187;-72
2023/10/11 07:38:23;;;;;;;7.73;4.47;;;17.90;1.00;;;;;;8284496;28;20252;-73
2023/10/11 07:42:28;;;;;;;6.00;4.43;;;18.00;1.00;;;;;;8259102;28;20282;-71
2023/10/11 07:46:29;;;;;;;7.77;4.57;;;18.20;1.00;;;;;;8268079;28;20218;-71
2023/10/11 07:50:32;;;;;;;8.53;4.17;;;18.30;1.00;;;;;;8273878;28;20570;-72
2023/10/11 07:54:35;;;;;;;5.63;4.27;;;18.40;1.00;;;;;;8280790;28;20188;-73
2023/10/11 07:58:44;;;;;;;5.47;4.20;;;18.60;1.00;;;;;;8284855;28;20207;-72
2023/10/11 08:02:59;;;;;;;9.67;4.73;;;18.80;1.00;;;;;;8286084;28;20210;-70
2023/10/11 08:07:02;;;;;;;9.07;4.77;;;18.90;1.00;;;;;;8272441;28;20187;-72
2023/10/11 08:11:18;;;;;;;6.80;4.17;;;19.10;1.00;;;;;;8266492;28;20187;-72
2023/10/11 08:15:22;;;;;;;9.33;4.30;;;19.30;1.00;;;;;;8291348;28;20180;-71
2023/10/11 08:19:23;;;;;;;8.33;4.57;;;19.40;1.00;;;;;;8266479;28;20215;-70
2023/10/11 08:23:30;;;;;;;6.23;4.20;;;19.50;1.00;;;;;;8282621;28;20179;-68
2023/10/11 08:27:31;;;;;;;8.97;4.00;;;19.60;1.00;;;;;;8283415;28;20206;-72
2023/10/11 08:31:35;;;;;;;5.60;4.03;;;19.70;1.00;;;;;;8283557;28;20218;-69
2023/10/11 08:35:36;;;;;;;5.90;4.10;;;19.70;1.00;;;;;;8277472;28;20254;-71
2023/10/11 08:39:44;;;;;;;11.03;4.67;;;19.80;1.00;;;;;;8259890;28;20215;-68
2023/10/11 08:43:48;;;;;;;9.07;3.83;;;19.80;1.00;;;;;;8259153;28;20187;-71
2023/10/11 08:47:49;;;;;;;8.70;4.07;;;19.90;1.00;;;;;;8260104;28;20274;-71
2023/10/11 08:51:56;;;;;;;6.50;4.10;;;20.00;1.00;;;;;;8262573;28;20194;-70
2023/10/11 08:55:59;;;;;;;10.03;4.40;;;20.00;1.00;;;;;;8278292;28;20183;-71
2023/10/11 09:00:03;;;;;;;7.67;3.70;;;20.10;1.00;;;;;;8261529;28;20229;-71
2023/10/11 09:04:13;;;;;;;6.50;3.90;;;20.20;1.00;;;;;;8282464;28;20179;-70
2023/10/11 09:08:22;;;;;;;9.77;3.70;;;20.40;1.00;;;;;;8282344;28;20187;-69
2023/10/11 09:12:23;;;;;;;6.30;3.63;;;20.50;1.00;;;;;;8273913;28;20187;-70
2023/10/11 09:16:34;;;;;;;8.90;4.10;;;20.60;1.00;;;;;;8277063;28;20213;-72
2023/10/11 09:20:40;;;;;;;10.70;4.20;;;20.70;1.00;;;;;;8276281;28;20286;-67
2023/10/11 09:24:44;;;;;;;7.83;4.47;;;20.80;1.00;;;;;;8260199;28;20210;-66
2023/10/11 09:28:56;;;;;;;5.97;4.17;;;20.90;1.00;;;;;;8268930;28;20214;-67
2023/10/11 09:33:05;;;;;;;6.77;3.80;;;20.90;1.00;;;;;;8271159;28;20314;-65
2023/10/11 09:37:06;;;;;;;7.70;4.60;;;20.90;1.00;;;;;;8270627;28;20226;-68
2023/10/11 09:41:08;;;;;;;7.27;3.97;;;21.10;1.00;;;;;;8253699;28;20251;-71
2023/10/11 09:45:16;;;;;;;6.60;4.33;;;21.40;1.00;;;;;;8261662;28;20179;-73
2023/10/11 09:49:21;;;;;;;7.20;3.60;;;21.60;1.00;;;;;;8276976;28;20241;-71
2023/10/11 09:53:25;;;;;;;6.80;3.40;;;21.80;1.00;;;;;;8258547;28;20214;-71
2023/10/11 09:57:33;;;;;;;5.73;3.60;;;21.80;1.00;;;;;;8262276;28;20207;-71
2023/10/11 10:01:41;;;;;;;9.10;3.90;;;22.00;1.00;;;;;;8257936;28;20230;-74
2023/10/11 10:06:08;;;;;;;11.70;4.10;;;22.10;1.00;;;;;;8274004;28;20222;-69
2023/10/11 10:10:15;;;;;;;8.50;4.53;;;22.20;1.00;;;;;;8272537;28;20180;-69
2023/10/11 10:14:23;;;;;;;7.77;4.20;;;22.60;1.00;;;;;;8240980;28;20210;-71
2023/10/11 10:18:25;;;;;;;7.83;3.80;;;22.90;1.00;;;;;;8255087;28;20207;-69
2023/10/11 10:22:32;;;;;;;7.27;4.10;;;23.10;1.00;;;;;;8255252;28;20179;-69
2023/10/11 10:26:33;;;;;;;7.30;3.63;;;23.10;1.00;;;;;;8256909;28;20195;-71
2023/10/11 10:31:24;;;;;;;9.23;4.20;;;23.20;1.00;;;;;;8271052;28;20175;-70
2023/10/11 10:35:27;;;;;;;8.23;3.92;;;23.40;1.00;;;;;;8246935;28;20201;-70
2023/10/11 10:39:36;;;;;;;11.73;4.32;;;23.50;1.00;;;;;;8253680;28;20217;-70
2023/10/11 10:43:36;;;;;;;7.47;3.80;;;23.60;1.00;;;;;;8271875;28;20219;-70
2023/10/11 10:47:37;;;;;;;9.07;3.90;;;23.60;1.00;;;;;;8254216;28;20190;-67
2023/10/11 10:51:39;;;;;;;7.18;3.45;;;23.50;1.00;;;;;;8252164;28;20251;-66
2023/10/11 10:55:44;;;;;;;9.13;4.18;;;23.50;1.00;;;;;;8269352;28;20190;-67
2023/10/11 10:59:48;;;;;;;8.90;4.13;;;23.60;1.00;;;;;;8245308;28;20289;-64
2023/10/11 11:03:57;;;;;;;8.55;3.85;;;23.60;1.00;;;;;;8252430;28;20179;-67
2023/10/11 11:08:19;;;;;;;9.77;3.80;;;23.60;1.00;;;;;;8270862;28;20195;-68
2023/10/11 11:12:29;;;;;;;6.78;3.67;;;23.70;1.00;;;;;;8254768;28;20198;-68
2023/10/11 11:16:30;;;;;;;10.32;3.85;;;23.80;1.00;;;;;;8272496;28;20353;-72
2023/10/11 11:20:33;;;;;;;8.90;3.95;;;23.70;1.00;;;;;;8270664;28;20268;-72
2023/10/11 11:24:34;;;;;;;5.60;3.60;;;23.50;1.00;;;;;;8260242;28;20202;-72
2023/10/11 11:28:42;;;;;;;7.07;4.03;;;23.50;1.00;;;;;;8276083;28;20202;-72
2023/10/11 11:32:45;;;;;;;12.73;4.15;;;23.40;1.00;;;;;;8273046;28;20191;-71
2023/10/11 11:36:56;;;;;;;11.85;3.97;;;23.30;1.00;;;;;;8276776;28;20199;-71
2023/10/11 11:41:04;;;;;;;7.10;3.50;;;23.10;1.00;;;;;;8262447;28;20188;-73
2023/10/11 11:45:08;;;;;;;7.97;3.88;;;22.90;1.00;;;;;;8273058;28;20188;-71
2023/10/11 11:49:10;;;;;;;11.77;4.00;;;22.90;1.00;;;;;;8254685;28;20187;-70
2023/10/11 11:53:10;;;;;;;8.02;3.80;;;22.90;1.00;;;;;;8252344;28;20207;-65
2023/10/11 11:57:11;;;;;;;8.23;3.70;;;23.00;1.00;;;;;;8250392;28;20219;-68
2023/10/11 12:01:15;;;;;;;7.23;4.00;;;23.10;1.00;;;;;;8252620;28;20269;-73
2023/10/11 12:05:16;;;;;;;5.80;3.70;;;23.20;1.00;;;;;;8256433;28;20381;-68
2023/10/11 12:09:23;;;;;;;7.30;3.90;;;23.20;1.00;;;;;;8273002;28;20193;-71
2023/10/11 12:13:25;;;;;;;8.13;3.30;;;23.20;1.00;;;;;;8272853;28;20191;-70
2023/10/11 12:17:26;;;;;;;6.23;3.53;;;23.30;1.00;;;;;;8259120;28;20215;-69
2023/10/11 12:21:27;;;;;;;8.68;4.13;;;23.40;1.00;;;;;;8280597;28;20203;-67
2023/10/11 12:25:32;;;;;;;5.93;3.58;;;23.50;1.00;;;;;;8279075;28;20497;-70
2023/10/11 12:29:34;;;;;;;6.28;3.63;;;23.60;1.00;;;;;;8258985;28;20191;-70
2023/10/11 12:33:39;;;;;;;8.45;3.90;;;23.70;1.00;;;;;;8286843;28;20194;-72
2023/10/11 12:37:43;;;;;;;7.35;3.75;;;23.90;1.00;;;;;;8276773;28;20207;-72
2023/10/11 12:41:43;;;;;;;6.68;3.70;;;24.00;1.00;;;;;;8273792;28;20441;-70
2023/10/11 12:45:49;;;;;;;11.13;4.32;;;24.00;1.00;;;;;;8278630;28;20264;-72
2023/10/11 12:49:51;;;;;;;7.82;4.07;;;23.90;1.00;;;;;;8266821;28;20184;-72
2023/10/11 12:53:54;;;;;;;6.95;3.55;;;23.80;1.00;;;;;;8281213;28;20195;-72
2023/10/11 12:57:55;;;;;;;8.10;3.88;;;23.80;1.00;;;;;;8258634;28;20223;-72
2023/10/11 13:01:57;;;;;;;5.50;3.55;;;23.90;1.00;;;;;;8280230;28;20203;-68
2023/10/11 13:06:03;;;;;;;7.38;3.67;;;23.80;1.00;;;;;;8260378;28;20446;-70
2023/10/11 13:10:06;;;;;;;7.82;3.53;;;23.80;1.00;;;;;;8277251;28;20213;-72
2023/10/11 13:14:08;;;;;;;7.30;3.33;;;23.60;1.00;;;;;;8263209;28;20190;-72
2023/10/11 13:18:19;;;;;;;9.40;4.10;;;23.50;1.00;;;;;;8279411;28;20293;-71
2023/10/11 13:22:20;;;;;;;6.75;3.47;;;23.50;1.00;;;;;;8259939;28;20191;-66
2023/10/11 13:26:21;;;;;;;8.95;3.53;;;23.50;1.00;;;;;;8252587;28;20190;-68
2023/10/11 13:30:22;;;;;;;7.33;4.03;;;23.50;1.00;;;;;;8252571;28;20187;-67
2023/10/11 13:34:30;;;;;;;8.60;3.70;;;23.50;1.00;;;;;;8271661;28;20252;-67
2023/10/11 13:38:34;;;;;;;7.80;4.45;;;23.50;1.00;;;;;;8272033;28;20318;-70
2023/10/11 13:42:37;;;;;;;8.68;4.32;;;23.40;1.00;;;;;;8270425;28;20223;-67
2023/10/11 13:46:38;;;;;;;9.93;3.80;;;23.40;1.00;;;;;;8253426;28;20198;-67
2023/10/11 13:50:40;;;;;;;6.72;3.28;;;23.50;1.00;;;;;;8269702;28;20189;-68
2023/10/11 13:58:45;;;;;;;5.63;3.43;;;23.40;1.00;;;;;;8272259;28;20210;-68
2023/10/11 14:02:47;;;;;;;7.28;3.80;;;23.40;1.00;;;;;;8254898;28;20179;-68
2023/10/11 14:07:21;;;;;;;8.77;4.63;;;23.40;1.00;;;;;;8252570;28;20187;-68
2023/10/11 14:11:24;;;;;;;9.55;4.22;;;23.40;1.00;;;;;;8270232;28;20190;-70
2023/10/11 14:15:29;;;;;;;9.87;4.37;;;23.40;1.00;;;;;;8267569;28;20183;-69
2023/10/11 14:19:33;;;;;;;6.70;3.67;;;23.20;1.00;;;;;;8270774;28;20575;-66
2023/10/11 14:23:36;;;;;;;7.67;4.47;;;23.20;1.00;;;;;;8266376;28;20187;-66
2023/10/11 14:27:39;;;;;;;10.77;4.50;;;23.10;1.00;;;;;;8265108;28;20738;-69
2023/10/11 14:31:42;;;;;;;7.47;3.40;;;23.10;1.00;;;;;;8255732;28;20190;-72
2023/10/11 14:35:43;;;;;;;9.20;4.00;;;23.00;1.00;;;;;;8276134;28;20179;-69
2023/10/11 14:39:47;;;;;;;6.37;4.00;;;22.90;1.00;;;;;;8274441;28;20215;-72
2023/10/11 14:43:53;;;;;;;6.00;4.03;;;22.80;1.00;;;;;;8277448;28;20186;-71
2023/10/11 14:47:55;;;;;;;6.73;3.87;;;22.70;1.00;;;;;;8260327;28;20191;-69
2023/10/11 14:51:58;;;;;;;9.20;4.10;;;22.60;1.00;;;;;;8263286;28;20248;-74
2023/10/11 14:56:03;;;;;;;6.30;3.80;;;22.50;1.00;;;;;;8257082;28;20237;-73
2023/10/11 15:00:06;;;;;;;5.63;3.63;;;22.50;1.00;;;;;;8274328;28;20282;-73
2023/10/11 15:04:10;;;;;;;4.90;3.90;;;22.30;1.00;;;;;;8258788;28;20215;-72
2023/10/11 15:08:15;;;;;;;6.60;3.90;;;22.20;1.00;;;;;;8263507;28;20179;-71
2023/10/11 15:12:17;;;;;;;7.40;3.63;;;22.00;1.00;;;;;;8264223;28;20235;-72
2023/10/11 15:16:21;;;;;;;9.43;3.93;;;21.80;1.00;;;;;;8259351;28;20392;-74
2023/10/11 15:20:25;;;;;;;10.57;4.23;;;21.60;1.00;;;;;;8268777;28;20203;-74
2023/10/11 15:24:26;;;;;;;6.87;3.90;;;21.40;1.00;;;;;;8257895;28;20453;-72
2023/10/11 15:28:30;;;;;;;9.47;3.90;;;21.30;1.00;;;;;;8272277;28;20182;-73
2023/10/11 15:32:31;;;;;;;7.23;3.90;;;21.10;1.00;;;;;;8265685;28;20183;-71
2023/10/11 15:36:36;;;;;;;6.67;4.20;;;21.00;1.00;;;;;;8263258;28;20187;-73
2023/10/11 15:40:36;;;;;;;7.70;3.50;;;20.90;1.00;;;;;;8254849;28;20316;-68
2023/10/11 15:44:38;;;;;;;10.33;4.27;;;20.80;1.00;;;;;;8268210;28;20198;-68
2023/10/11 15:48:40;;;;;;;8.77;4.33;;;20.70;1.00;;;;;;8264516;28;20191;-70
2023/10/11 15:52:41;;;;;;;8.40;3.83;;;20.50;1.00;;;;;;8251414;28;20191;-68
2023/10/11 15:56:43;;;;;;;8.93;3.90;;;20.40;1.00;;;;;;8275749;28;20273;-70
2023/10/11 16:00:44;;;;;;;7.93;4.23;;;20.20;1.00;;;;;;8255464;28;20211;-69
2023/10/11 16:04:45;;;;;;;7.93;4.00;;;20.10;1.00;;;;;;8258222;28;20260;-67
2023/10/11 16:08:46;;;;;;;7.90;3.90;;;20.00;1.00;;;;;;8271249;28;20195;-70
2023/10/11 16:12:46;;;;;;;13.57;3.97;;;19.90;1.00;;;;;;8247889;28;20301;-69
2023/10/11 16:16:47;;;;;;;10.50;4.37;;;19.70;1.00;;;;;;8272862;28;20202;-70
2023/10/11 16:20:48;;;;;;;10.50;4.77;;;19.70;1.00;;;;;;8273946;28;20183;-68
2023/10/11 16:24:48;;;;;;;8.40;4.03;;;19.60;1.00;;;;;;8272102;28;20198;-65
2023/10/11 16:28:49;;;;;;;10.30;4.60;;;19.60;1.00;;;;;;8273122;28;20208;-68
2023/10/11 16:32:54;;;;;;;8.53;3.90;;;19.60;1.00;;;;;;8275153;28;20187;-67
2023/10/11 16:36:54;;;;;;;6.03;3.93;;;19.50;1.00;;;;;;8256871;28;20214;-66
2023/10/11 16:40:55;;;;;;;8.23;4.00;;;19.40;1.00;;;;;;8270187;28;20223;-63
2023/10/11 16:44:56;;;;;;;9.67;4.10;;;19.30;1.00;;;;;;8271174;28;20195;-63
2023/10/11 16:48:56;;;;;;;7.80;4.47;;;19.10;1.00;;;;;;8271862;28;20221;-64
2023/10/11 16:52:57;;;;;;;7.23;4.37;;;19.00;1.00;;;;;;8256177;28;20206;-65
2023/10/11 16:56:58;;;;;;;10.93;4.40;;;19.00;1.00;;;;;;8271823;28;20211;-65
2023/10/11 17:01:01;;;;;;;6.57;3.80;;;18.90;1.00;;;;;;8274364;28;20381;-71
2023/10/11 17:05:06;;;;;;;8.33;4.00;;;18.90;1.00;;;;;;8276483;28;20376;-66
2023/10/11 17:09:07;;;;;;;7.33;4.03;;;18.80;1.00;;;;;;8278142;28;20190;-69
2023/10/11 17:13:09;;;;;;;8.07;5.00;;;18.80;1.00;;;;;;8282014;28;20184;-71
2023/10/11 17:17:11;;;;;;;8.20;4.20;;;18.90;1.00;;;;;;8282486;28;20207;-70
2023/10/11 17:21:13;;;;;;;7.97;4.27;;;18.80;1.00;;;;;;8280390;28;20202;-63
2023/10/11 17:25:19;;;;;;;7.00;4.40;;;18.80;1.00;;;;;;8271261;28;20195;-65
2023/10/11 17:29:20;;;;;;;5.97;4.43;;;18.70;1.00;;;;;;8252843;28;20194;-63
2023/10/11 17:33:20;;;;;;;8.50;4.37;;;18.70;1.00;;;;;;8271625;28;20294;-65
2023/10/11 17:37:21;;;;;;;9.93;4.27;;;18.70;1.00;;;;;;8253307;28;20532;-65
2023/10/11 17:41:23;;;;;;;7.47;4.37;;;18.60;1.00;;;;;;8249087;28;20191;-64
2023/10/11 17:45:29;;;;;;;9.63;4.57;;;18.60;1.00;;;;;;8271941;28;20326;-63
2023/10/11 17:49:29;;;;;;;10.43;3.90;;;18.60;1.00;;;;;;8258125;28;20245;-63
2023/10/11 17:53:32;;;;;;;7.93;4.10;;;18.70;1.00;;;;;;8268822;28;20191;-64
2023/10/11 17:57:33;;;;;;;9.07;3.63;;;18.70;1.00;;;;;;8249800;28;20203;-65
2023/10/11 18:01:34;;;;;;;11.20;4.40;;;18.70;1.00;;;;;;8270511;28;20795;-64
2023/10/11 18:05:39;;;;;;;9.00;4.30;;;18.70;1.00;;;;;;8269988;28;20187;-64
2023/10/11 18:09:40;;;;;;;11.00;4.13;;;18.70;1.00;;;;;;8254007;28;20191;-64
2023/10/11 18:13:41;;;;;;;9.47;4.30;;;18.80;1.00;;;;;;8270214;28;20191;-64
2023/10/11 18:17:44;;;;;;;8.27;4.37;;;18.80;1.00;;;;;;8268178;28;20218;-64
2023/10/11 18:21:44;;;;;;;10.27;4.10;;;18.80;1.00;;;;;;8270643;28;20257;-65
2023/10/11 18:25:46;;;;;;;5.63;3.60;;;18.90;1.00;;;;;;8269950;28;20203;-64
2023/10/11 18:29:48;;;;;;;8.47;3.63;;;18.80;1.00;;;;;;8252218;28;20195;-66
2023/10/11 18:33:49;;;;;;;8.87;4.37;;;18.80;1.00;;;;;;8270077;28;20233;-67
2023/10/11 18:37:51;;;;;;;9.00;4.07;;;18.80;1.00;;;;;;8269428;28;20222;-67
2023/10/11 18:41:55;;;;;;;12.37;4.27;;;18.80;1.00;;;;;;8256690;28;20279;-70
2023/10/11 18:45:56;;;;;;;10.00;4.07;;;18.80;1.00;;;;;;8268832;28;20187;-71
2023/10/11 18:49:59;;;;;;;7.93;4.27;;;18.80;1.00;;;;;;8264155;28;20199;-71
2023/10/11 18:54:00;;;;;;;10.60;4.20;;;18.80;1.00;;;;;;8268132;28;20199;-65
2023/10/11 18:58:01;;;;;;;9.70;4.33;;;18.80;1.00;;;;;;8267606;28;20206;-65
2023/10/11 19:02:02;;;;;;;8.00;3.40;;;18.70;1.00;;;;;;8267560;28;20226;-65
2023/10/11 19:06:14;;;;;;;8.10;4.07;;;18.70;1.00;;;;;;8267883;28;20245;-65
2023/10/11 19:10:16;;;;;;;6.73;3.90;;;18.70;1.00;;;;;;8268590;28;20190;-66
2023/10/11 19:14:17;;;;;;;8.83;4.37;;;18.70;1.00;;;;;;8254301;28;20191;-64
2023/10/11 19:18:19;;;;;;;9.60;4.13;;;18.70;1.00;;;;;;8256199;28;20326;-66
2023/10/11 19:22:20;;;;;;;8.60;3.93;;;18.60;1.00;;;;;;8254052;28;20194;-65
2023/10/11 19:26:23;;;;;;;12.53;4.30;;;18.60;1.00;;;;;;8250344;28;20333;-65
2023/10/11 19:30:24;;;;;;;7.13;3.63;;;18.60;1.00;;;;;;8266799;28;20198;-64
2023/10/11 19:34:25;;;;;;;5.40;3.33;;;18.60;1.00;;;;;;8253580;28;20205;-65
2023/10/11 19:38:26;;;;;;;6.70;3.60;;;18.60;1.00;;;;;;8265523;28;20219;-64
2023/10/11 19:42:27;;;;;;;8.50;3.87;;;18.50;1.00;;;;;;8267653;28;20183;-64
2023/10/11 19:46:27;;;;;;;7.13;3.37;;;18.50;1.00;;;;;;8249568;28;20576;-66
2023/10/11 19:50:29;;;;;;;7.70;4.00;;;18.50;1.00;;;;;;8251231;28;20278;-72
2023/10/11 19:54:32;;;;;;;7.30;3.80;;;18.60;1.00;;;;;;8265595;28;20191;-71
2023/10/11 19:58:33;;;;;;;8.40;3.30;;;18.60;1.00;;;;;;8286431;28;20291;-70
2023/10/11 20:02:35;;;;;;;6.10;3.40;;;18.50;1.00;;;;;;8263896;28;20187;-71
2023/10/11 20:06:38;;;;;;;6.87;3.50;;;18.60;1.00;;;;;;8284785;28;20180;-69
2023/10/11 20:10:40;;;;;;;11.40;4.07;;;18.70;1.00;;;;;;8262672;28;20237;-71
2023/10/11 20:14:41;;;;;;;7.43;3.73;;;18.80;1.00;;;;;;8266978;28;20203;-71
2023/10/11 20:18:44;;;;;;;8.93;3.57;;;18.80;1.00;;;;;;8283671;28;20206;-70
2023/10/11 20:22:51;;;;;;;9.80;3.60;;;18.90;1.00;;;;;;8262348;28;20238;-70
2023/10/11 20:26:51;;;;;;;9.33;4.07;;;19.00;1.00;;;;;;8279294;28;20244;-68
2023/10/11 20:30:54;;;;;;;7.43;3.67;;;19.00;1.00;;;;;;8274477;28;20195;-71
2023/10/11 20:34:55;;;;;;;8.33;3.77;;;19.10;1.00;;;;;;8257296;28;20192;-71
2023/10/11 20:38:56;;;;;;;8.50;3.60;;;19.10;1.00;;;;;;8280870;28;20282;-69
2023/10/11 20:42:57;;;;;;;10.57;3.67;;;19.10;1.00;;;;;;8285336;28;20183;-70
2023/10/11 20:46:58;;;;;;;10.17;3.83;;;19.10;1.00;;;;;;8265096;28;20201;-69
2023/10/11 20:51:06;;;;;;;9.40;3.43;;;19.10;1.00;;;;;;8286009;28;20179;-70
2023/10/11 20:55:11;;;;;;;8.90;4.10;;;19.10;1.00;;;;;;8261943;28;20194;-71
2023/10/11 20:59:18;;;;;;;7.37;3.27;;;19.00;1.00;;;;;;8283851;28;20215;-70
2023/10/11 21:03:24;;;;;;;6.87;3.63;;;19.00;1.00;;;;;;8266788;28;20194;-70
2023/10/11 21:07:27;;;;;;;7.77;4.07;;;19.10;1.00;;;;;;8253245;28;20187;-70
2023/10/11 21:11:28;;;;;;;12.30;3.80;;;19.10;1.00;;;;;;8267544;28;20257;-69
2023/10/11 21:15:28;;;;;;;8.03;3.67;;;19.10;1.00;;;;;;8287598;28;20226;-69
2023/10/11 21:19:36;;;;;;;7.13;4.13;;;19.10;1.00;;;;;;8264610;28;20211;-71
2023/10/11 21:23:37;;;;;;;9.47;4.37;;;19.00;1.00;;;;;;8283677;28;20200;-72
2023/10/11 21:27:42;;;;;;;9.20;4.07;;;19.00;1.00;;;;;;8283596;28;20238;-67
2023/10/11 21:31:43;;;;;;;10.13;4.40;;;19.00;1.00;;;;;;8265660;28;20262;-69
2023/10/11 21:35:44;;;;;;;6.63;4.33;;;19.00;1.00;;;;;;8287433;28;20245;-71
2023/10/11 21:39:46;;;;;;;7.00;3.70;;;19.10;1.00;;;;;;8265197;28;20238;-70
2023/10/11 21:43:48;;;;;;;9.30;4.07;;;19.10;1.00;;;;;;8263785;28;20203;-71
2023/10/11 21:47:52;;;;;;;13.23;4.07;;;19.00;1.00;;;;;;8282635;28;20187;-72